sensor_id;sensor_type;location;lat;lon;timestamp;pressure;altitude;pressure_sealevel;temperature;humidity
21109;BME280;10712;52.944;9.098;2022-12-29T00:01:51;99998.47;;;17.48;56.00
21109;BME280;10712;52.944;9.098;2022-12-29T00:04:18;99993.63;;;17.52;56.11
21109;BME280;10712;52.944;9.098;2022-12-29T00:06:44;100005.56;;;17.49;56.38
21109;BME280;10712;52.944;9.098;2022-12-29T00:09:12;99993.75;;;17.05;57.81
21109;BME280;10712;52.944;9.098;2022-12-29T00:11:38;99978.50;;;16.96;58.13
21109;BME280;10712;52.944;9.098;2022-12-29T00:14:05;99993.66;;;16.97;58.36
21109;BME280;10712;52.944;9.098;2022-12-29T00:16:49;99985.69;;;17.05;58.27
21109;BME280;10712;52.944;9.098;2022-12-29T00:19:15;99972.63;;;17.10;58.54
21109;BME280;10712;52.944;9.098;2022-12-29T00:21:59;99983.28;;;17.02;58.34
21109;BME280;10712;52.944;9.098;2022-12-29T00:24:45;99967.34;;;17.18;58.18
21109;BME280;10712;52.944;9.098;2022-12-29T00:27:29;99962.66;;;17.20;58.22
21109;BME280;10712;52.944;9.098;2022-12-29T00:30:19;99971.72;;;17.19;58.38
21109;BME280;10712;52.944;9.098;2022-12-29T00:33:28;99969.50;;;17.15;58.53
21109;BME280;10712;52.944;9.098;2022-12-29T00:36:38;99960.06;;;17.28;58.12
21109;BME280;10712;52.944;9.098;2022-12-29T00:39:14;99947.88;;;17.24;58.48
21109;BME280;10712;52.944;9.098;2022-12-29T00:42:05;99943.59;;;17.31;58.28
21109;BME280;10712;52.944;9.098;2022-12-29T00:44:50;99937.50;;;17.29;58.42
21109;BME280;10712;52.944;9.098;2022-12-29T00:47:16;99933.44;;;17.43;58.19
21109;BME280;10712;52.944;9.098;2022-12-29T00:49:42;99928.81;;;17.36;58.02
21109;BME280;10712;52.944;9.098;2022-12-29T00:52:11;99933.19;;;17.37;58.04
21109;BME280;10712;52.944;9.098;2022-12-29T00:54:40;99933.66;;;17.32;58.28
21109;BME280;10712;52.944;9.098;2022-12-29T00:57:09;99928.66;;;17.37;57.92
21109;BME280;10712;52.944;9.098;2022-12-29T00:59:40;99931.91;;;17.41;58.11
21109;BME280;10712;52.944;9.098;2022-12-29T01:02:08;99920.38;;;17.48;57.82
21109;BME280;10712;52.944;9.098;2022-12-29T01:04:34;99917.38;;;17.87;56.73
21109;BME280;10712;52.944;9.098;2022-12-29T01:07:00;99912.06;;;17.95;56.35
21109;BME280;10712;52.944;9.098;2022-12-29T01:09:26;99916.03;;;18.08;55.89
21109;BME280;10712;52.944;9.098;2022-12-29T01:12:11;99904.34;;;18.00;55.87
21109;BME280;10712;52.944;9.098;2022-12-29T01:14:38;99909.59;;;18.01;55.92
21109;BME280;10712;52.944;9.098;2022-12-29T01:17:04;99903.91;;;18.04;56.14
21109;BME280;10712;52.944;9.098;2022-12-29T01:19:32;99902.19;;;18.03;56.11
21109;BME280;10712;52.944;9.098;2022-12-29T01:21:58;99910.88;;;18.15;55.74
21109;BME280;10712;52.944;9.098;2022-12-29T01:24:24;99908.88;;;18.17;55.69
21109;BME280;10712;52.944;9.098;2022-12-29T01:26:51;99899.56;;;18.12;55.78
21109;BME280;10712;52.944;9.098;2022-12-29T01:29:17;99898.72;;;18.11;55.78
21109;BME280;10712;52.944;9.098;2022-12-29T01:31:45;99897.91;;;18.19;55.69
21109;BME280;10712;52.944;9.098;2022-12-29T01:34:11;99905.69;;;18.22;55.84
21109;BME280;10712;52.944;9.098;2022-12-29T01:36:37;99893.91;;;18.23;55.66
21109;BME280;10712;52.944;9.098;2022-12-29T01:39:03;99900.59;;;18.19;55.72
21109;BME280;10712;52.944;9.098;2022-12-29T01:41:29;99901.13;;;18.22;55.80
21109;BME280;10712;52.944;9.098;2022-12-29T01:43:59;99893.84;;;18.15;55.89
21109;BME280;10712;52.944;9.098;2022-12-29T01:46:38;99900.22;;;18.14;55.87
21109;BME280;10712;52.944;9.098;2022-12-29T01:49:18;99889.00;;;18.18;55.67
21109;BME280;10712;52.944;9.098;2022-12-29T01:51:57;99879.34;;;18.16;55.84
21109;BME280;10712;52.944;9.098;2022-12-29T01:54:39;99892.16;;;18.14;55.76
21109;BME280;10712;52.944;9.098;2022-12-29T01:57:14;99885.81;;;18.23;55.62
21109;BME280;10712;52.944;9.098;2022-12-29T01:59:51;99885.13;;;18.21;55.59
21109;BME280;10712;52.944;9.098;2022-12-29T02:02:19;99883.16;;;18.31;55.35
21109;BME280;10712;52.944;9.098;2022-12-29T02:04:45;99872.38;;;18.31;55.38
21109;BME280;10712;52.944;9.098;2022-12-29T02:07:19;99873.78;;;18.43;54.96
21109;BME280;10712;52.944;9.098;2022-12-29T02:09:50;99860.94;;;18.37;55.27
21109;BME280;10712;52.944;9.098;2022-12-29T02:12:19;99862.31;;;18.41;54.86
21109;BME280;10712;52.944;9.098;2022-12-29T02:14:47;99860.31;;;18.43;54.80
21109;BME280;10712;52.944;9.098;2022-12-29T02:21:10;99857.75;;;18.41;54.74
21109;BME280;10712;52.944;9.098;2022-12-29T02:38:51;99839.78;;;18.50;54.47
21109;BME280;10712;52.944;9.098;2022-12-29T02:44:34;99825.94;;;18.45;54.90
21109;BME280;10712;52.944;9.098;2022-12-29T02:50:03;99815.84;;;18.55;54.44
21109;BME280;10712;52.944;9.098;2022-12-29T02:52:46;99824.66;;;18.57;54.41
21109;BME280;10712;52.944;9.098;2022-12-29T02:55:15;99817.16;;;18.43;54.74
21109;BME280;10712;52.944;9.098;2022-12-29T02:57:41;99818.69;;;18.54;54.92
21109;BME280;10712;52.944;9.098;2022-12-29T03:00:14;99826.00;;;18.61;54.69
21109;BME280;10712;52.944;9.098;2022-12-29T03:03:16;99822.16;;;18.64;54.53
21109;BME280;10712;52.944;9.098;2022-12-29T03:06:15;99813.22;;;18.63;54.78
21109;BME280;10712;52.944;9.098;2022-12-29T03:11:38;99809.66;;;18.63;54.62
21109;BME280;10712;52.944;9.098;2022-12-29T03:20:54;99781.13;;;18.52;55.53
21109;BME280;10712;52.944;9.098;2022-12-29T03:23:24;99782.34;;;18.58;55.47
21109;BME280;10712;52.944;9.098;2022-12-29T03:25:57;99783.47;;;18.55;56.05
21109;BME280;10712;52.944;9.098;2022-12-29T03:28:30;99784.38;;;18.64;56.16
21109;BME280;10712;52.944;9.098;2022-12-29T03:30:59;99784.22;;;18.65;56.58
21109;BME280;10712;52.944;9.098;2022-12-29T03:33:29;99775.75;;;18.60;56.61
21109;BME280;10712;52.944;9.098;2022-12-29T03:36:04;99771.91;;;18.63;56.64
21109;BME280;10712;52.944;9.098;2022-12-29T03:38:36;99768.03;;;18.65;56.76
21109;BME280;10712;52.944;9.098;2022-12-29T03:41:12;99768.34;;;18.62;57.07
21109;BME280;10712;52.944;9.098;2022-12-29T03:43:40;99771.41;;;18.67;57.32
21109;BME280;10712;52.944;9.098;2022-12-29T03:46:06;99772.06;;;18.61;57.91
21109;BME280;10712;52.944;9.098;2022-12-29T03:48:33;99759.94;;;18.57;57.99
21109;BME280;10712;52.944;9.098;2022-12-29T03:50:59;99760.72;;;18.49;57.92
21109;BME280;10712;52.944;9.098;2022-12-29T03:53:25;99761.88;;;18.39;58.44
21109;BME280;10712;52.944;9.098;2022-12-29T03:55:51;99761.44;;;18.26;58.75
21109;BME280;10712;52.944;9.098;2022-12-29T03:58:16;99765.25;;;18.49;58.68
21109;BME280;10712;52.944;9.098;2022-12-29T04:00:53;99763.34;;;18.33;58.57
21109;BME280;10712;52.944;9.098;2022-12-29T04:03:19;99753.47;;;18.50;58.26
21109;BME280;10712;52.944;9.098;2022-12-29T04:05:45;99749.75;;;18.51;58.43
21109;BME280;10712;52.944;9.098;2022-12-29T04:08:11;99742.34;;;18.53;58.73
21109;BME280;10712;52.944;9.098;2022-12-29T04:10:37;99741.31;;;18.54;58.75
21109;BME280;10712;52.944;9.098;2022-12-29T04:13:05;99731.16;;;18.40;58.82
21109;BME280;10712;52.944;9.098;2022-12-29T04:15:31;99725.47;;;18.43;58.75
21109;BME280;10712;52.944;9.098;2022-12-29T04:17:57;99733.06;;;18.47;58.71
21109;BME280;10712;52.944;9.098;2022-12-29T04:20:23;99742.69;;;18.50;58.42
21109;BME280;10712;52.944;9.098;2022-12-29T04:23:07;99729.88;;;18.52;58.20
21109;BME280;10712;52.944;9.098;2022-12-29T04:25:35;99734.75;;;18.48;58.31
21109;BME280;10712;52.944;9.098;2022-12-29T04:28:02;99737.59;;;18.47;58.69
21109;BME280;10712;52.944;9.098;2022-12-29T04:30:46;99742.69;;;18.50;58.56
21109;BME280;10712;52.944;9.098;2022-12-29T04:33:23;99741.03;;;18.57;58.32
21109;BME280;10712;52.944;9.098;2022-12-29T04:35:50;99743.53;;;18.50;58.39
21109;BME280;10712;52.944;9.098;2022-12-29T04:38:16;99726.50;;;18.50;58.29
21109;BME280;10712;52.944;9.098;2022-12-29T04:40:43;99730.72;;;18.53;58.30
21109;BME280;10712;52.944;9.098;2022-12-29T04:43:10;99738.59;;;18.38;58.62
21109;BME280;10712;52.944;9.098;2022-12-29T04:45:56;99733.75;;;18.49;58.52
21109;BME280;10712;52.944;9.098;2022-12-29T04:48:27;99729.16;;;18.42;58.55
21109;BME280;10712;52.944;9.098;2022-12-29T04:51:12;99731.53;;;18.45;58.52
21109;BME280;10712;52.944;9.098;2022-12-29T04:53:38;99737.09;;;18.43;58.66
21109;BME280;10712;52.944;9.098;2022-12-29T04:56:05;99736.59;;;18.48;58.50
21109;BME280;10712;52.944;9.098;2022-12-29T04:58:31;99725.63;;;18.41;59.02
21109;BME280;10712;52.944;9.098;2022-12-29T05:00:58;99731.56;;;18.53;58.33
21109;BME280;10712;52.944;9.098;2022-12-29T05:03:28;99736.97;;;18.53;58.49
21109;BME280;10712;52.944;9.098;2022-12-29T05:05:55;99726.34;;;18.52;58.01
21109;BME280;10712;52.944;9.098;2022-12-29T05:08:23;99723.09;;;18.48;58.20
21109;BME280;10712;52.944;9.098;2022-12-29T05:10:52;99727.66;;;18.47;58.16
21109;BME280;10712;52.944;9.098;2022-12-29T05:13:19;99719.47;;;18.57;57.69
21109;BME280;10712;52.944;9.098;2022-12-29T05:15:51;99718.25;;;18.52;57.72
21109;BME280;10712;52.944;9.098;2022-12-29T05:18:18;99710.31;;;18.50;57.66
21109;BME280;10712;52.944;9.098;2022-12-29T05:20:45;99716.09;;;18.63;57.28
21109;BME280;10712;52.944;9.098;2022-12-29T05:23:12;99701.78;;;18.71;56.61
21109;BME280;10712;52.944;9.098;2022-12-29T05:25:39;99711.38;;;18.57;56.88
21109;BME280;10712;52.944;9.098;2022-12-29T05:28:13;99712.22;;;18.58;56.93
21109;BME280;10712;52.944;9.098;2022-12-29T05:30:53;99712.56;;;18.71;56.56
21109;BME280;10712;52.944;9.098;2022-12-29T05:33:19;99690.31;;;18.77;55.79
21109;BME280;10712;52.944;9.098;2022-12-29T05:35:46;99695.53;;;18.70;56.09
21109;BME280;10712;52.944;9.098;2022-12-29T05:38:13;99698.56;;;18.67;55.72
21109;BME280;10712;52.944;9.098;2022-12-29T05:40:39;99692.00;;;18.78;54.83
21109;BME280;10712;52.944;9.098;2022-12-29T05:43:16;99712.91;;;18.68;54.70
21109;BME280;10712;52.944;9.098;2022-12-29T05:46:06;99700.25;;;18.76;54.24
21109;BME280;10712;52.944;9.098;2022-12-29T05:48:44;99709.38;;;18.75;54.49
21109;BME280;10712;52.944;9.098;2022-12-29T05:51:19;99717.13;;;18.70;54.60
21109;BME280;10712;52.944;9.098;2022-12-29T05:53:47;99727.91;;;18.70;54.44
21109;BME280;10712;52.944;9.098;2022-12-29T05:56:14;99714.09;;;18.73;54.51
21109;BME280;10712;52.944;9.098;2022-12-29T05:58:41;99719.50;;;18.81;54.24
21109;BME280;10712;52.944;9.098;2022-12-29T06:01:07;99727.25;;;18.76;54.13
21109;BME280;10712;52.944;9.098;2022-12-29T06:03:33;99705.66;;;18.84;53.99
21109;BME280;10712;52.944;9.098;2022-12-29T06:05:59;99711.09;;;18.93;53.52
21109;BME280;10712;52.944;9.098;2022-12-29T06:08:26;99701.63;;;18.97;53.30
21109;BME280;10712;52.944;9.098;2022-12-29T06:10:52;99697.56;;;18.84;53.85
21109;BME280;10712;52.944;9.098;2022-12-29T06:13:18;99685.94;;;18.84;53.99
21109;BME280;10712;52.944;9.098;2022-12-29T06:15:49;99679.38;;;18.86;53.68
21109;BME280;10712;52.944;9.098;2022-12-29T06:18:16;99685.41;;;18.88;53.61
21109;BME280;10712;52.944;9.098;2022-12-29T06:20:43;99683.09;;;18.85;54.02
21109;BME280;10712;52.944;9.098;2022-12-29T06:23:09;99699.09;;;18.95;54.08
21109;BME280;10712;52.944;9.098;2022-12-29T06:25:37;99691.84;;;18.96;54.17
21109;BME280;10712;52.944;9.098;2022-12-29T06:28:03;99691.84;;;18.87;54.21
21109;BME280;10712;52.944;9.098;2022-12-29T06:30:31;99695.56;;;18.86;54.61
21109;BME280;10712;52.944;9.098;2022-12-29T06:32:59;99691.34;;;18.84;54.60
21109;BME280;10712;52.944;9.098;2022-12-29T06:35:25;99698.94;;;18.72;54.77
21109;BME280;10712;52.944;9.098;2022-12-29T06:37:51;99697.25;;;18.79;55.07
21109;BME280;10712;52.944;9.098;2022-12-29T06:40:17;99698.94;;;18.80;55.10
21109;BME280;10712;52.944;9.098;2022-12-29T06:43:02;99706.69;;;18.83;55.18
21109;BME280;10712;52.944;9.098;2022-12-29T06:45:47;99716.81;;;18.89;54.85
21109;BME280;10712;52.944;9.098;2022-12-29T06:48:12;99721.19;;;18.82;55.30
21109;BME280;10712;52.944;9.098;2022-12-29T06:50:38;99734.31;;;18.69;55.65
21109;BME280;10712;52.944;9.098;2022-12-29T06:53:04;99736.16;;;18.69;56.29
21109;BME280;10712;52.944;9.098;2022-12-29T06:55:30;99750.47;;;18.61;56.32
21109;BME280;10712;52.944;9.098;2022-12-29T06:57:58;99749.75;;;18.51;56.41
21109;BME280;10712;52.944;9.098;2022-12-29T07:00:24;99756.47;;;18.47;57.13
21109;BME280;10712;52.944;9.098;2022-12-29T07:02:51;99751.09;;;18.39;57.12
21109;BME280;10712;52.944;9.098;2022-12-29T07:05:17;99730.00;;;18.42;57.21
21109;BME280;10712;52.944;9.098;2022-12-29T07:07:42;99736.97;;;18.53;57.26
21109;BME280;10712;52.944;9.098;2022-12-29T07:10:09;99724.75;;;18.33;57.41
21109;BME280;10712;52.944;9.098;2022-12-29T07:12:35;99721.75;;;18.44;56.81
21109;BME280;10712;52.944;9.098;2022-12-29T07:15:00;99727.44;;;18.33;57.11
21109;BME280;10712;52.944;9.098;2022-12-29T07:17:26;99728.09;;;18.27;57.29
21109;BME280;10712;52.944;9.098;2022-12-29T07:19:52;99734.50;;;18.26;56.97
21109;BME280;10712;52.944;9.098;2022-12-29T07:22:18;99731.44;;;18.21;56.92
21109;BME280;10712;52.944;9.098;2022-12-29T07:24:44;99755.44;;;18.32;56.58
21109;BME280;10712;52.944;9.098;2022-12-29T07:27:09;99763.50;;;18.24;56.75
21109;BME280;10712;52.944;9.098;2022-12-29T07:29:38;99771.94;;;18.29;56.34
21109;BME280;10712;52.944;9.098;2022-12-29T07:32:04;99782.00;;;18.27;56.26
21109;BME280;10712;52.944;9.098;2022-12-29T07:34:30;99799.53;;;18.23;56.22
21109;BME280;10712;52.944;9.098;2022-12-29T07:36:56;99807.28;;;18.18;56.30
21109;BME280;10712;52.944;9.098;2022-12-29T07:39:22;99800.19;;;18.17;56.08
21109;BME280;10712;52.944;9.098;2022-12-29T07:41:48;99808.22;;;18.08;56.34
21109;BME280;10712;52.944;9.098;2022-12-29T07:44:17;99807.69;;;18.05;56.34
21109;BME280;10712;52.944;9.098;2022-12-29T07:46:55;99805.47;;;18.00;56.35
21109;BME280;10712;52.944;9.098;2022-12-29T07:49:20;99811.81;;;17.91;56.59
21109;BME280;10712;52.944;9.098;2022-12-29T07:51:46;99807.03;;;18.03;56.06
21109;BME280;10712;52.944;9.098;2022-12-29T07:54:12;99808.53;;;18.05;55.68
21109;BME280;10712;52.944;9.098;2022-12-29T07:56:38;99819.34;;;18.14;55.26
21109;BME280;10712;52.944;9.098;2022-12-29T07:59:04;99814.31;;;18.10;54.71
21109;BME280;10712;52.944;9.098;2022-12-29T08:01:30;99817.94;;;18.01;54.61
21109;BME280;10712;52.944;9.098;2022-12-29T08:03:56;99815.41;;;18.00;54.37
21109;BME280;10712;52.944;9.098;2022-12-29T08:06:21;99830.78;;;18.07;53.63
21109;BME280;10712;52.944;9.098;2022-12-29T08:08:48;99832.63;;;18.07;53.45
21109;BME280;10712;52.944;9.098;2022-12-29T08:11:13;99840.06;;;18.13;52.86
21109;BME280;10712;52.944;9.098;2022-12-29T08:13:39;99839.81;;;17.98;52.98
21109;BME280;10712;52.944;9.098;2022-12-29T08:16:05;99853.00;;;18.01;52.84
21109;BME280;10712;52.944;9.098;2022-12-29T08:18:31;99848.94;;;17.97;52.17
21109;BME280;10712;52.944;9.098;2022-12-29T08:21:02;99852.28;;;17.99;51.94
21109;BME280;10712;52.944;9.098;2022-12-29T08:23:28;99856.63;;;17.92;52.07
21109;BME280;10712;52.944;9.098;2022-12-29T08:26:03;99850.72;;;17.89;52.45
21109;BME280;10712;52.944;9.098;2022-12-29T08:28:30;99882.00;;;17.82;52.52
21109;BME280;10712;52.944;9.098;2022-12-29T08:31:01;99886.19;;;17.84;52.57
21109;BME280;10712;52.944;9.098;2022-12-29T08:33:28;99881.44;;;17.78;52.81
21109;BME280;10712;52.944;9.098;2022-12-29T08:36:05;99885.13;;;17.77;52.94
21109;BME280;10712;52.944;9.098;2022-12-29T08:38:33;99887.38;;;17.82;53.48
21109;BME280;10712;52.944;9.098;2022-12-29T08:40:59;99877.44;;;17.82;53.69
21109;BME280;10712;52.944;9.098;2022-12-29T08:43:27;99886.53;;;17.81;54.25
21109;BME280;10712;52.944;9.098;2022-12-29T08:45:53;99888.59;;;17.87;54.74
21109;BME280;10712;52.944;9.098;2022-12-29T08:48:19;99871.44;;;17.53;55.75
21109;BME280;10712;52.944;9.098;2022-12-29T08:50:49;99873.84;;;17.74;55.20
21109;BME280;10712;52.944;9.098;2022-12-29T08:53:16;99866.34;;;17.85;55.16
21109;BME280;10712;52.944;9.098;2022-12-29T08:55:46;99870.16;;;18.00;54.66
21109;BME280;10712;52.944;9.098;2022-12-29T08:58:13;99870.44;;;17.89;54.72
21109;BME280;10712;52.944;9.098;2022-12-29T09:00:43;99877.03;;;17.95;54.38
21109;BME280;10712;52.944;9.098;2022-12-29T09:03:10;99877.53;;;17.98;54.26
21109;BME280;10712;52.944;9.098;2022-12-29T09:05:36;99863.06;;;17.99;53.71
21109;BME280;10712;52.944;9.098;2022-12-29T09:08:03;99872.16;;;17.98;53.87
21109;BME280;10712;52.944;9.098;2022-12-29T09:10:29;99878.50;;;17.89;53.97
21109;BME280;10712;52.944;9.098;2022-12-29T09:12:54;99878.81;;;17.86;53.99
21109;BME280;10712;52.944;9.098;2022-12-29T09:15:20;99886.19;;;17.84;54.02
21109;BME280;10712;52.944;9.098;2022-12-29T09:17:46;99888.97;;;17.92;53.81
21109;BME280;10712;52.944;9.098;2022-12-29T09:20:18;99894.13;;;17.86;53.88
21109;BME280;10712;52.944;9.098;2022-12-29T09:22:45;99892.28;;;17.86;53.93
21109;BME280;10712;52.944;9.098;2022-12-29T09:25:11;99896.03;;;17.93;53.07
21109;BME280;10712;52.944;9.098;2022-12-29T09:27:38;99898.25;;;17.98;52.91
21109;BME280;10712;52.944;9.098;2022-12-29T09:30:07;99899.44;;;17.95;52.84
21109;BME280;10712;52.944;9.098;2022-12-29T09:32:34;99897.47;;;18.05;52.67
21109;BME280;10712;52.944;9.098;2022-12-29T09:35:00;99906.97;;;18.09;52.29
21109;BME280;10712;52.944;9.098;2022-12-29T09:37:26;99904.97;;;18.12;52.40
21109;BME280;10712;52.944;9.098;2022-12-29T09:39:52;99908.53;;;18.20;52.16
21109;BME280;10712;52.944;9.098;2022-12-29T09:45:14;99902.06;;;18.13;52.08
21109;BME280;10712;52.944;9.098;2022-12-29T09:47:45;99900.59;;;18.19;52.11
21109;BME280;10712;52.944;9.098;2022-12-29T09:50:24;99898.81;;;18.27;51.38
21109;BME280;10712;52.944;9.098;2022-12-29T09:55:39;99890.84;;;18.18;51.55
21109;BME280;10712;52.944;9.098;2022-12-29T09:58:35;99883.06;;;18.15;51.75
21109;BME280;10712;52.944;9.098;2022-12-29T10:01:28;99888.50;;;18.23;51.30
21109;BME280;10712;52.944;9.098;2022-12-29T10:03:59;99886.53;;;18.33;50.93
21109;BME280;10712;52.944;9.098;2022-12-29T10:06:51;99890.25;;;18.32;50.70
21109;BME280;10712;52.944;9.098;2022-12-29T10:09:49;99882.72;;;18.43;50.47
21109;BME280;10712;52.944;9.098;2022-12-29T10:12:43;99884.84;;;18.58;50.08
21109;BME280;10712;52.944;9.098;2022-12-29T10:15:33;99894.56;;;18.50;50.06
21109;BME280;10712;52.944;9.098;2022-12-29T10:23:56;99870.91;;;18.70;50.70
21109;BME280;10712;52.944;9.098;2022-12-29T10:26:31;99871.91;;;18.69;50.43
21109;BME280;10712;52.944;9.098;2022-12-29T10:29:05;99865.34;;;18.72;49.80
21109;BME280;10712;52.944;9.098;2022-12-29T10:31:56;99873.66;;;18.78;49.23
21109;BME280;10712;52.944;9.098;2022-12-29T10:34:42;99878.88;;;18.80;49.03
21109;BME280;10712;52.944;9.098;2022-12-29T10:37:34;99895.28;;;18.86;48.67
21109;BME280;10712;52.944;9.098;2022-12-29T10:40:28;99885.13;;;18.80;48.88
21109;BME280;10712;52.944;9.098;2022-12-29T10:42:58;99905.34;;;18.76;49.20
21109;BME280;10712;52.944;9.098;2022-12-29T10:45:31;99907.69;;;18.71;49.66
21109;BME280;10712;52.944;9.098;2022-12-29T10:48:14;99904.84;;;18.55;50.13
21109;BME280;10712;52.944;9.098;2022-12-29T10:50:44;99913.72;;;18.65;50.05
21109;BME280;10712;52.944;9.098;2022-12-29T10:53:21;99911.53;;;18.43;51.05
21109;BME280;10712;52.944;9.098;2022-12-29T10:55:50;99904.81;;;18.47;51.20
21109;BME280;10712;52.944;9.098;2022-12-29T10:58:17;99909.13;;;18.32;51.78
21109;BME280;10712;52.944;9.098;2022-12-29T11:00:51;99893.63;;;18.34;51.53
21109;BME280;10712;52.944;9.098;2022-12-29T11:03:39;99904.53;;;18.24;51.71
21109;BME280;10712;52.944;9.098;2022-12-29T11:06:24;99899.56;;;18.37;50.91
21109;BME280;10712;52.944;9.098;2022-12-29T11:08:59;99899.22;;;18.40;50.37
21109;BME280;10712;52.944;9.098;2022-12-29T11:11:36;99891.66;;;18.44;49.95
21109;BME280;10712;52.944;9.098;2022-12-29T11:14:17;99878.28;;;18.60;49.16
21109;BME280;10712;52.944;9.098;2022-12-29T11:16:43;99894.78;;;18.57;48.68
21109;BME280;10712;52.944;9.098;2022-12-29T11:19:22;99889.75;;;18.62;48.72
21109;BME280;10712;52.944;9.098;2022-12-29T11:21:49;99878.13;;;18.62;47.94
21109;BME280;10712;52.944;9.098;2022-12-29T11:24:24;99875.31;;;18.71;47.32
21109;BME280;10712;52.944;9.098;2022-12-29T11:27:08;99883.25;;;18.73;46.69
21109;BME280;10712;52.944;9.098;2022-12-29T11:29:40;99872.78;;;18.78;46.10
21109;BME280;10712;52.944;9.098;2022-12-29T11:32:28;99885.13;;;18.80;46.47
21109;BME280;10712;52.944;9.098;2022-12-29T11:34:57;99889.72;;;18.96;46.38
21109;BME280;10712;52.944;9.098;2022-12-29T11:37:40;99895.28;;;18.86;46.29
21109;BME280;10712;52.944;9.098;2022-12-29T11:40:18;99891.72;;;18.86;46.39
21109;BME280;10712;52.944;9.098;2022-12-29T11:43:02;99900.66;;;18.86;46.38
21109;BME280;10712;52.944;9.098;2022-12-29T11:45:34;99883.06;;;18.74;46.58
21109;BME280;10712;52.944;9.098;2022-12-29T11:48:19;99888.19;;;18.85;46.44
21109;BME280;10712;52.944;9.098;2022-12-29T11:50:58;99888.84;;;18.79;46.37
21109;BME280;10712;52.944;9.098;2022-12-29T11:53:33;99888.19;;;18.85;46.35
21109;BME280;10712;52.944;9.098;2022-12-29T11:56:08;99887.97;;;18.79;46.72
21109;BME280;10712;52.944;9.098;2022-12-29T11:58:37;99882.41;;;18.72;46.59
21109;BME280;10712;52.944;9.098;2022-12-29T12:04:15;99874.81;;;18.76;46.00
21109;BME280;10712;52.944;9.098;2022-12-29T12:07:03;99889.03;;;18.86;46.03
21109;BME280;10712;52.944;9.098;2022-12-29T12:09:44;99879.19;;;18.77;45.50
21109;BME280;10712;52.944;9.098;2022-12-29T12:12:39;99891.34;;;18.81;45.40
21109;BME280;10712;52.944;9.098;2022-12-29T12:15:17;99901.94;;;18.74;45.04
21109;BME280;10712;52.944;9.098;2022-12-29T12:18:09;99894.00;;;18.65;45.20
21109;BME280;10712;52.944;9.098;2022-12-29T12:20:57;99895.56;;;18.83;45.03
21109;BME280;10712;52.944;9.098;2022-12-29T12:26:21;99898.13;;;18.85;45.00
21109;BME280;10712;52.944;9.098;2022-12-29T12:29:10;99904.38;;;18.85;45.69
21109;BME280;10712;52.944;9.098;2022-12-29T12:31:50;99909.63;;;18.87;45.69
21109;BME280;10712;52.944;9.098;2022-12-29T12:34:38;99905.88;;;18.80;45.64
21109;BME280;10712;52.944;9.098;2022-12-29T12:37:46;99906.72;;;18.80;45.75
21109;BME280;10712;52.944;9.098;2022-12-29T12:43:37;99905.75;;;18.98;45.07
21109;BME280;10712;52.944;9.098;2022-12-29T12:46:55;99914.19;;;19.03;45.17
21109;BME280;10712;52.944;9.098;2022-12-29T12:50:11;99915.53;;;18.99;45.22
21109;BME280;10712;52.944;9.098;2022-12-29T12:52:54;99924.34;;;19.01;45.68
21109;BME280;10712;52.944;9.098;2022-12-29T12:56:29;99924.66;;;18.98;46.34
21109;BME280;10712;52.944;9.098;2022-12-29T12:58:59;99935.31;;;19.07;46.31
21109;BME280;10712;52.944;9.098;2022-12-29T13:08:03;99962.78;;;18.95;47.25
21109;BME280;10712;52.944;9.098;2022-12-29T13:10:58;99962.97;;;19.01;47.07
21109;BME280;10712;52.944;9.098;2022-12-29T13:19:23;99985.84;;;18.89;47.78
21109;BME280;10712;52.944;9.098;2022-12-29T13:28:09;99999.41;;;18.71;48.79
21109;BME280;10712;52.944;9.098;2022-12-29T13:36:40;100017.19;;;18.56;50.28
21109;BME280;10712;52.944;9.098;2022-12-29T13:39:57;100008.34;;;18.46;50.58
21109;BME280;10712;52.944;9.098;2022-12-29T13:42:25;100018.50;;;18.52;50.34
21109;BME280;10712;52.944;9.098;2022-12-29T13:45:02;100028.53;;;18.60;50.61
21109;BME280;10712;52.944;9.098;2022-12-29T13:47:49;100030.13;;;18.53;50.30
21109;BME280;10712;52.944;9.098;2022-12-29T13:50:22;100028.38;;;18.43;50.77
21109;BME280;10712;52.944;9.098;2022-12-29T13:56:17;100047.03;;;18.37;50.87
21109;BME280;10712;52.944;9.098;2022-12-29T14:05:00;100069.44;;;18.20;52.04
21109;BME280;10712;52.944;9.098;2022-12-29T14:07:27;100072.53;;;18.25;52.33
21109;BME280;10712;52.944;9.098;2022-12-29T14:09:56;100076.06;;;17.90;52.74
21109;BME280;10712;52.944;9.098;2022-12-29T14:12:43;100070.22;;;17.94;52.88
21109;BME280;10712;52.944;9.098;2022-12-29T14:17:43;100087.88;;;17.52;54.09
21109;BME280;10712;52.944;9.098;2022-12-29T14:20:21;100092.50;;;17.69;53.70
21109;BME280;10712;52.944;9.098;2022-12-29T14:31:52;100105.94;;;17.42;54.75
21109;BME280;10712;52.944;9.098;2022-12-29T14:36:57;100129.06;;;17.35;55.12
21109;BME280;10712;52.944;9.098;2022-12-29T14:39:37;100135.25;;;17.45;54.94
21109;BME280;10712;52.944;9.098;2022-12-29T14:56:14;100150.03;;;17.41;54.54
21109;BME280;10712;52.944;9.098;2022-12-29T14:58:51;100161.78;;;17.40;54.25
21109;BME280;10712;52.944;9.098;2022-12-29T15:01:22;100171.44;;;17.32;54.45
21109;BME280;10712;52.944;9.098;2022-12-29T15:03:52;100166.34;;;17.29;54.51
21109;BME280;10712;52.944;9.098;2022-12-29T15:06:19;100163.81;;;17.28;54.49
21109;BME280;10712;52.944;9.098;2022-12-29T15:09:12;100171.03;;;17.27;54.54
21109;BME280;10712;52.944;9.098;2022-12-29T15:11:41;100178.81;;;17.30;54.40
21109;BME280;10712;52.944;9.098;2022-12-29T15:14:38;100175.84;;;17.33;54.37
21109;BME280;10712;52.944;9.098;2022-12-29T15:17:32;100174.84;;;17.35;53.93
21109;BME280;10712;52.944;9.098;2022-12-29T15:20:29;100176.69;;;17.24;54.25
21109;BME280;10712;52.944;9.098;2022-12-29T15:23:08;100181.38;;;17.22;54.30
21109;BME280;10712;52.944;9.098;2022-12-29T15:25:35;100179.41;;;17.24;54.12
21109;BME280;10712;52.944;9.098;2022-12-29T15:28:06;100180.06;;;17.36;53.56
21109;BME280;10712;52.944;9.098;2022-12-29T15:30:55;100187.47;;;17.24;53.48